sensor_id;sensor_type;location;lat;lon;timestamp;P1;durP1;ratioP1;P2;durP2;ratioP2
12383;SDS011;6256;63.808;20.336;2023-02-27T00:00:55;1.40;;;1.20;;
12383;SDS011;6256;63.808;20.336;2023-02-27T00:03:22;0.97;;;0.90;;
12383;SDS011;6256;63.808;20.336;2023-02-27T00:05:48;1.00;;;0.90;;
12383;SDS011;6256;63.808;20.336;2023-02-27T00:08:13;0.63;;;0.57;;
12383;SDS011;6256;63.808;20.336;2023-02-27T00:10:39;2.40;;;1.30;;
12383;SDS011;6256;63.808;20.336;2023-02-27T00:13:05;0.67;;;0.57;;
12383;SDS011;6256;63.808;20.336;2023-02-27T00:15:31;1.03;;;0.93;;
12383;SDS011;6256;63.808;20.336;2023-02-27T00:17:57;0.73;;;0.73;;
12383;SDS011;6256;63.808;20.336;2023-02-27T00:20:24;0.90;;;0.90;;
12383;SDS011;6256;63.808;20.336;2023-02-27T00:22:50;2.77;;;1.37;;
12383;SDS011;6256;63.808;20.336;2023-02-27T00:25:16;2.77;;;1.50;;
12383;SDS011;6256;63.808;20.336;2023-02-27T00:27:42;1.67;;;1.07;;
12383;SDS011;6256;63.808;20.336;2023-02-27T00:30:08;0.93;;;0.73;;
12383;SDS011;6256;63.808;20.336;2023-02-27T00:32:36;1.73;;;0.97;;
12383;SDS011;6256;63.808;20.336;2023-02-27T00:35:05;0.80;;;0.80;;
12383;SDS011;6256;63.808;20.336;2023-02-27T00:37:32;0.97;;;0.77;;
12383;SDS011;6256;63.808;20.336;2023-02-27T00:39:59;0.90;;;0.50;;
12383;SDS011;6256;63.808;20.336;2023-02-27T00:42:26;0.53;;;0.40;;
12383;SDS011;6256;63.808;20.336;2023-02-27T00:44:52;2.40;;;0.97;;
12383;SDS011;6256;63.808;20.336;2023-02-27T00:47:18;0.73;;;0.70;;
12383;SDS011;6256;63.808;20.336;2023-02-27T00:49:44;1.90;;;1.20;;
12383;SDS011;6256;63.808;20.336;2023-02-27T00:52:10;0.80;;;0.80;;
12383;SDS011;6256;63.808;20.336;2023-02-27T00:54:36;0.40;;;0.40;;
12383;SDS011;6256;63.808;20.336;2023-02-27T00:57:01;1.47;;;1.33;;
12383;SDS011;6256;63.808;20.336;2023-02-27T00:59:30;1.50;;;0.80;;
12383;SDS011;6256;63.808;20.336;2023-02-27T01:01:56;0.90;;;0.90;;
12383;SDS011;6256;63.808;20.336;2023-02-27T01:04:22;1.40;;;0.90;;
12383;SDS011;6256;63.808;20.336;2023-02-27T01:06:48;2.13;;;0.80;;
12383;SDS011;6256;63.808;20.336;2023-02-27T01:09:14;0.70;;;0.67;;
12383;SDS011;6256;63.808;20.336;2023-02-27T01:11:39;0.77;;;0.70;;
12383;SDS011;6256;63.808;20.336;2023-02-27T01:14:05;0.47;;;0.47;;
12383;SDS011;6256;63.808;20.336;2023-02-27T01:16:31;0.63;;;0.60;;
12383;SDS011;6256;63.808;20.336;2023-02-27T01:18:56;0.67;;;0.67;;
12383;SDS011;6256;63.808;20.336;2023-02-27T01:21:22;0.60;;;0.57;;
12383;SDS011;6256;63.808;20.336;2023-02-27T01:23:48;0.63;;;0.53;;
12383;SDS011;6256;63.808;20.336;2023-02-27T01:26:14;0.57;;;0.50;;
12383;SDS011;6256;63.808;20.336;2023-02-27T01:28:40;0.33;;;0.33;;
12383;SDS011;6256;63.808;20.336;2023-02-27T01:31:05;0.30;;;0.30;;
12383;SDS011;6256;63.808;20.336;2023-02-27T01:33:31;0.53;;;0.40;;
12383;SDS011;6256;63.808;20.336;2023-02-27T01:35:57;0.47;;;0.47;;
12383;SDS011;6256;63.808;20.336;2023-02-27T01:38:23;0.50;;;0.50;;
12383;SDS011;6256;63.808;20.336;2023-02-27T01:40:48;0.73;;;0.60;;
12383;SDS011;6256;63.808;20.336;2023-02-27T01:43:15;0.50;;;0.50;;
12383;SDS011;6256;63.808;20.336;2023-02-27T01:45:46;0.30;;;0.30;;
12383;SDS011;6256;63.808;20.336;2023-02-27T01:48:15;3.43;;;0.70;;
12383;SDS011;6256;63.808;20.336;2023-02-27T01:50:49;0.77;;;0.60;;
12383;SDS011;6256;63.808;20.336;2023-02-27T01:53:22;0.50;;;0.50;;
12383;SDS011;6256;63.808;20.336;2023-02-27T01:55:50;1.07;;;0.50;;
12383;SDS011;6256;63.808;20.336;2023-02-27T01:58:19;0.87;;;0.50;;
12383;SDS011;6256;63.808;20.336;2023-02-27T02:00:46;3.17;;;0.93;;
12383;SDS011;6256;63.808;20.336;2023-02-27T02:06:01;0.30;;;0.30;;
12383;SDS011;6256;63.808;20.336;2023-02-27T02:08:30;0.40;;;0.40;;
12383;SDS011;6256;63.808;20.336;2023-02-27T02:11:00;0.30;;;0.30;;
12383;SDS011;6256;63.808;20.336;2023-02-27T02:13:27;1.90;;;0.50;;
12383;SDS011;6256;63.808;20.336;2023-02-27T02:16:03;0.40;;;0.40;;
12383;SDS011;6256;63.808;20.336;2023-02-27T02:18:48;0.30;;;0.30;;
12383;SDS011;6256;63.808;20.336;2023-02-27T02:27:03;0.40;;;0.40;;
12383;SDS011;6256;63.808;20.336;2023-02-27T02:40:42;0.40;;;0.40;;
12383;SDS011;6256;63.808;20.336;2023-02-27T02:43:20;0.60;;;0.60;;
12383;SDS011;6256;63.808;20.336;2023-02-27T02:46:12;0.40;;;0.40;;
12383;SDS011;6256;63.808;20.336;2023-02-27T02:49:47;0.20;;;0.20;;
12383;SDS011;6256;63.808;20.336;2023-02-27T02:51:48;0.20;;;0.20;;
12383;SDS011;6256;63.808;20.336;2023-02-27T02:54:32;0.30;;;0.30;;
12383;SDS011;6256;63.808;20.336;2023-02-27T02:57:25;0.60;;;0.30;;
12383;SDS011;6256;63.808;20.336;2023-02-27T03:00:01;0.30;;;0.30;;
12383;SDS011;6256;63.808;20.336;2023-02-27T03:02:36;0.30;;;0.30;;
12383;SDS011;6256;63.808;20.336;2023-02-27T03:05:08;0.40;;;0.40;;
12383;SDS011;6256;63.808;20.336;2023-02-27T03:07:46;0.40;;;0.40;;
12383;SDS011;6256;63.808;20.336;2023-02-27T03:10:18;0.37;;;0.37;;
12383;SDS011;6256;63.808;20.336;2023-02-27T03:13:02;1.80;;;0.30;;
12383;SDS011;6256;63.808;20.336;2023-02-27T03:15:39;0.40;;;0.40;;
12383;SDS011;6256;63.808;20.336;2023-02-27T03:18:12;2.70;;;0.73;;
12383;SDS011;6256;63.808;20.336;2023-02-27T03:20:54;0.60;;;0.60;;
12383;SDS011;6256;63.808;20.336;2023-02-27T03:23:43;0.83;;;0.43;;
12383;SDS011;6256;63.808;20.336;2023-02-27T03:26:12;0.30;;;0.30;;
12383;SDS011;6256;63.808;20.336;2023-02-27T03:28:45;0.40;;;0.40;;
12383;SDS011;6256;63.808;20.336;2023-02-27T03:34:15;0.80;;;0.77;;
12383;SDS011;6256;63.808;20.336;2023-02-27T03:36:50;0.30;;;0.30;;
12383;SDS011;6256;63.808;20.336;2023-02-27T03:39:26;0.43;;;0.43;;
12383;SDS011;6256;63.808;20.336;2023-02-27T03:45:02;0.50;;;0.50;;
12383;SDS011;6256;63.808;20.336;2023-02-27T03:47:29;1.60;;;0.70;;
12383;SDS011;6256;63.808;20.336;2023-02-27T03:49:56;0.30;;;0.30;;
12383;SDS011;6256;63.808;20.336;2023-02-27T03:52:22;0.40;;;0.40;;
12383;SDS011;6256;63.808;20.336;2023-02-27T03:54:54;0.40;;;0.40;;
12383;SDS011;6256;63.808;20.336;2023-02-27T03:57:23;1.87;;;0.70;;
12383;SDS011;6256;63.808;20.336;2023-02-27T03:59:50;0.83;;;0.77;;
12383;SDS011;6256;63.808;20.336;2023-02-27T04:02:17;0.30;;;0.30;;
12383;SDS011;6256;63.808;20.336;2023-02-27T04:04:43;0.70;;;0.70;;
12383;SDS011;6256;63.808;20.336;2023-02-27T04:13:25;0.60;;;0.60;;
12383;SDS011;6256;63.808;20.336;2023-02-27T04:27:19;0.90;;;0.60;;
12383;SDS011;6256;63.808;20.336;2023-02-27T04:29:57;0.53;;;0.53;;
12383;SDS011;6256;63.808;20.336;2023-02-27T04:32:42;1.03;;;0.50;;
12383;SDS011;6256;63.808;20.336;2023-02-27T04:35:32;0.50;;;0.50;;
12383;SDS011;6256;63.808;20.336;2023-02-27T04:38:18;0.40;;;0.40;;
12383;SDS011;6256;63.808;20.336;2023-02-27T04:43:31;0.40;;;0.40;;
12383;SDS011;6256;63.808;20.336;2023-02-27T04:45:59;1.50;;;0.83;;
12383;SDS011;6256;63.808;20.336;2023-02-27T04:48:35;0.93;;;0.60;;
12383;SDS011;6256;63.808;20.336;2023-02-27T04:51:24;0.80;;;0.80;;
12383;SDS011;6256;63.808;20.336;2023-02-27T04:53:57;0.40;;;0.40;;
12383;SDS011;6256;63.808;20.336;2023-02-27T04:56:32;1.43;;;0.50;;
12383;SDS011;6256;63.808;20.336;2023-02-27T04:59:11;0.30;;;0.30;;
12383;SDS011;6256;63.808;20.336;2023-02-27T05:01:47;0.40;;;0.40;;
12383;SDS011;6256;63.808;20.336;2023-02-27T05:04:24;0.40;;;0.40;;
12383;SDS011;6256;63.808;20.336;2023-02-27T05:06:52;1.33;;;0.77;;
12383;SDS011;6256;63.808;20.336;2023-02-27T05:12:19;0.30;;;0.30;;
12383;SDS011;6256;63.808;20.336;2023-02-27T05:15:31;0.40;;;0.40;;
12383;SDS011;6256;63.808;20.336;2023-02-27T05:17:43;0.60;;;0.60;;
12383;SDS011;6256;63.808;20.336;2023-02-27T05:20:16;0.60;;;0.60;;
12383;SDS011;6256;63.808;20.336;2023-02-27T05:25:40;0.63;;;0.63;;
12383;SDS011;6256;63.808;20.336;2023-02-27T05:28:17;2.60;;;0.93;;
12383;SDS011;6256;63.808;20.336;2023-02-27T05:30:51;0.77;;;0.73;;
12383;SDS011;6256;63.808;20.336;2023-02-27T05:38:29;0.73;;;0.70;;
12383;SDS011;6256;63.808;20.336;2023-02-27T05:41:10;0.73;;;0.73;;
12383;SDS011;6256;63.808;20.336;2023-02-27T05:43:48;0.53;;;0.53;;
12383;SDS011;6256;63.808;20.336;2023-02-27T05:46:27;3.07;;;0.77;;
12383;SDS011;6256;63.808;20.336;2023-02-27T05:49:01;1.60;;;1.40;;
12383;SDS011;6256;63.808;20.336;2023-02-27T05:54:06;2.53;;;0.80;;
12383;SDS011;6256;63.808;20.336;2023-02-27T05:56:35;1.63;;;1.03;;
12383;SDS011;6256;63.808;20.336;2023-02-27T05:59:06;2.50;;;1.17;;
12383;SDS011;6256;63.808;20.336;2023-02-27T06:01:38;2.80;;;1.50;;
12383;SDS011;6256;63.808;20.336;2023-02-27T06:04:04;1.13;;;0.83;;
12383;SDS011;6256;63.808;20.336;2023-02-27T06:06:30;5.37;;;1.67;;
12383;SDS011;6256;63.808;20.336;2023-02-27T06:08:56;2.13;;;1.30;;
12383;SDS011;6256;63.808;20.336;2023-02-27T06:11:21;3.10;;;1.13;;
12383;SDS011;6256;63.808;20.336;2023-02-27T06:13:47;4.10;;;2.07;;
12383;SDS011;6256;63.808;20.336;2023-02-27T06:16:13;5.20;;;2.00;;
12383;SDS011;6256;63.808;20.336;2023-02-27T06:18:40;4.90;;;1.83;;
12383;SDS011;6256;63.808;20.336;2023-02-27T06:21:06;4.33;;;1.83;;
12383;SDS011;6256;63.808;20.336;2023-02-27T06:23:35;3.50;;;1.97;;
12383;SDS011;6256;63.808;20.336;2023-02-27T06:26:00;3.10;;;1.83;;
12383;SDS011;6256;63.808;20.336;2023-02-27T06:28:26;3.30;;;1.70;;
12383;SDS011;6256;63.808;20.336;2023-02-27T06:30:53;2.57;;;1.50;;
12383;SDS011;6256;63.808;20.336;2023-02-27T06:33:19;4.30;;;2.00;;
12383;SDS011;6256;63.808;20.336;2023-02-27T06:35:46;3.27;;;1.70;;
12383;SDS011;6256;63.808;20.336;2023-02-27T06:38:13;1.43;;;1.30;;
12383;SDS011;6256;63.808;20.336;2023-02-27T06:40:39;2.07;;;1.00;;
12383;SDS011;6256;63.808;20.336;2023-02-27T06:43:05;7.30;;;2.27;;
12383;SDS011;6256;63.808;20.336;2023-02-27T06:45:30;1.70;;;0.87;;
12383;SDS011;6256;63.808;20.336;2023-02-27T06:47:56;2.90;;;0.93;;
12383;SDS011;6256;63.808;20.336;2023-02-27T06:50:21;1.50;;;1.20;;
12383;SDS011;6256;63.808;20.336;2023-02-27T06:52:47;0.83;;;0.60;;
12383;SDS011;6256;63.808;20.336;2023-02-27T06:55:13;1.53;;;0.73;;
12383;SDS011;6256;63.808;20.336;2023-02-27T06:57:45;0.50;;;0.50;;
12383;SDS011;6256;63.808;20.336;2023-02-27T07:00:12;0.57;;;0.53;;
12383;SDS011;6256;63.808;20.336;2023-02-27T07:02:38;1.90;;;0.70;;
12383;SDS011;6256;63.808;20.336;2023-02-27T07:05:04;0.50;;;0.43;;
12383;SDS011;6256;63.808;20.336;2023-02-27T07:07:31;1.33;;;0.60;;
12383;SDS011;6256;63.808;20.336;2023-02-27T07:09:57;1.70;;;0.73;;
12383;SDS011;6256;63.808;20.336;2023-02-27T07:12:23;0.87;;;0.70;;
12383;SDS011;6256;63.808;20.336;2023-02-27T07:14:49;4.23;;;0.60;;
12383;SDS011;6256;63.808;20.336;2023-02-27T07:17:14;2.73;;;0.60;;
12383;SDS011;6256;63.808;20.336;2023-02-27T07:19:40;2.00;;;0.70;;
12383;SDS011;6256;63.808;20.336;2023-02-27T07:22:06;0.53;;;0.40;;
12383;SDS011;6256;63.808;20.336;2023-02-27T07:24:33;2.80;;;0.50;;
12383;SDS011;6256;63.808;20.336;2023-02-27T07:27:00;6.53;;;1.10;;
12383;SDS011;6256;63.808;20.336;2023-02-27T07:29:26;2.77;;;0.70;;
12383;SDS011;6256;63.808;20.336;2023-02-27T07:31:52;2.03;;;0.60;;
12383;SDS011;6256;63.808;20.336;2023-02-27T07:34:17;0.43;;;0.43;;
12383;SDS011;6256;63.808;20.336;2023-02-27T07:36:43;1.40;;;0.90;;
12383;SDS011;6256;63.808;20.336;2023-02-27T07:39:10;1.73;;;1.07;;
12383;SDS011;6256;63.808;20.336;2023-02-27T07:41:36;0.87;;;0.80;;
12383;SDS011;6256;63.808;20.336;2023-02-27T07:44:02;1.67;;;0.87;;
12383;SDS011;6256;63.808;20.336;2023-02-27T07:46:28;1.80;;;0.90;;
12383;SDS011;6256;63.808;20.336;2023-02-27T07:48:53;0.70;;;0.70;;
12383;SDS011;6256;63.808;20.336;2023-02-27T07:51:20;0.93;;;0.80;;
12383;SDS011;6256;63.808;20.336;2023-02-27T07:53:46;1.10;;;1.00;;
12383;SDS011;6256;63.808;20.336;2023-02-27T07:56:11;1.00;;;0.90;;
12383;SDS011;6256;63.808;20.336;2023-02-27T07:58:38;1.80;;;1.07;;
12383;SDS011;6256;63.808;20.336;2023-02-27T08:01:03;1.57;;;1.13;;
12383;SDS011;6256;63.808;20.336;2023-02-27T08:03:29;1.60;;;0.80;;
12383;SDS011;6256;63.808;20.336;2023-02-27T08:05:55;1.73;;;0.83;;
12383;SDS011;6256;63.808;20.336;2023-02-27T08:08:20;1.73;;;0.80;;
12383;SDS011;6256;63.808;20.336;2023-02-27T08:10:46;2.27;;;0.87;;
12383;SDS011;6256;63.808;20.336;2023-02-27T08:13:13;2.80;;;1.00;;
12383;SDS011;6256;63.808;20.336;2023-02-27T08:15:39;0.93;;;0.83;;
12383;SDS011;6256;63.808;20.336;2023-02-27T08:18:05;1.50;;;0.83;;
12383;SDS011;6256;63.808;20.336;2023-02-27T08:20:31;1.10;;;0.50;;
12383;SDS011;6256;63.808;20.336;2023-02-27T08:22:56;1.03;;;0.70;;
12383;SDS011;6256;63.808;20.336;2023-02-27T08:25:22;0.80;;;0.73;;
12383;SDS011;6256;63.808;20.336;2023-02-27T08:27:48;0.97;;;0.67;;
12383;SDS011;6256;63.808;20.336;2023-02-27T08:30:14;1.43;;;0.70;;
12383;SDS011;6256;63.808;20.336;2023-02-27T08:32:41;0.50;;;0.50;;
12383;SDS011;6256;63.808;20.336;2023-02-27T08:35:07;0.97;;;0.70;;
12383;SDS011;6256;63.808;20.336;2023-02-27T08:37:33;0.40;;;0.40;;
12383;SDS011;6256;63.808;20.336;2023-02-27T08:39:59;1.70;;;0.60;;
12383;SDS011;6256;63.808;20.336;2023-02-27T08:42:25;1.70;;;0.60;;
12383;SDS011;6256;63.808;20.336;2023-02-27T08:44:51;0.40;;;0.40;;
12383;SDS011;6256;63.808;20.336;2023-02-27T08:47:17;0.50;;;0.47;;
12383;SDS011;6256;63.808;20.336;2023-02-27T08:49:42;0.57;;;0.57;;
12383;SDS011;6256;63.808;20.336;2023-02-27T08:52:08;0.60;;;0.40;;
12383;SDS011;6256;63.808;20.336;2023-02-27T08:54:34;1.40;;;0.60;;
12383;SDS011;6256;63.808;20.336;2023-02-27T08:57:01;0.40;;;0.40;;
12383;SDS011;6256;63.808;20.336;2023-02-27T08:59:28;0.30;;;0.30;;
12383;SDS011;6256;63.808;20.336;2023-02-27T09:01:54;0.20;;;0.20;;
12383;SDS011;6256;63.808;20.336;2023-02-27T09:04:19;0.47;;;0.47;;
12383;SDS011;6256;63.808;20.336;2023-02-27T09:06:45;0.57;;;0.47;;
12383;SDS011;6256;63.808;20.336;2023-02-27T09:09:11;0.80;;;0.47;;
12383;SDS011;6256;63.808;20.336;2023-02-27T09:11:37;0.37;;;0.37;;
12383;SDS011;6256;63.808;20.336;2023-02-27T09:14:03;0.27;;;0.27;;
12383;SDS011;6256;63.808;20.336;2023-02-27T09:16:29;0.20;;;0.20;;
12383;SDS011;6256;63.808;20.336;2023-02-27T09:18:55;0.30;;;0.30;;
12383;SDS011;6256;63.808;20.336;2023-02-27T09:21:22;0.73;;;0.47;;
12383;SDS011;6256;63.808;20.336;2023-02-27T09:23:48;0.37;;;0.37;;
12383;SDS011;6256;63.808;20.336;2023-02-27T09:26:15;0.37;;;0.37;;
12383;SDS011;6256;63.808;20.336;2023-02-27T09:28:41;0.40;;;0.40;;
12383;SDS011;6256;63.808;20.336;2023-02-27T09:31:07;0.47;;;0.40;;
12383;SDS011;6256;63.808;20.336;2023-02-27T09:33:33;0.40;;;0.40;;
12383;SDS011;6256;63.808;20.336;2023-02-27T09:36:01;0.40;;;0.40;;
12383;SDS011;6256;63.808;20.336;2023-02-27T09:38:29;0.80;;;0.40;;
12383;SDS011;6256;63.808;20.336;2023-02-27T09:40:56;0.20;;;0.20;;
12383;SDS011;6256;63.808;20.336;2023-02-27T09:43:24;0.53;;;0.53;;
12383;SDS011;6256;63.808;20.336;2023-02-27T09:45:53;0.30;;;0.30;;
12383;SDS011;6256;63.808;20.336;2023-02-27T09:48:29;0.30;;;0.30;;
12383;SDS011;6256;63.808;20.336;2023-02-27T09:50:58;0.47;;;0.47;;
12383;SDS011;6256;63.808;20.336;2023-02-27T09:53:28;0.33;;;0.33;;
12383;SDS011;6256;63.808;20.336;2023-02-27T09:56:23;0.40;;;0.40;;
12383;SDS011;6256;63.808;20.336;2023-02-27T10:01:28;0.20;;;0.20;;
12383;SDS011;6256;63.808;20.336;2023-02-27T10:06:52;0.40;;;0.30;;
12383;SDS011;6256;63.808;20.336;2023-02-27T10:15:11;0.30;;;0.30;;
12383;SDS011;6256;63.808;20.336;2023-02-27T10:18:22;0.60;;;0.60;;
12383;SDS011;6256;63.808;20.336;2023-02-27T10:21:00;0.20;;;0.20;;
12383;SDS011;6256;63.808;20.336;2023-02-27T10:26:27;0.20;;;0.20;;
12383;SDS011;6256;63.808;20.336;2023-02-27T10:28:56;0.20;;;0.20;;
12383;SDS011;6256;63.808;20.336;2023-02-27T10:31:24;0.20;;;0.20;;
12383;SDS011;6256;63.808;20.336;2023-02-27T10:33:55;0.30;;;0.30;;
12383;SDS011;6256;63.808;20.336;2023-02-27T10:36:22;0.20;;;0.20;;
12383;SDS011;6256;63.808;20.336;2023-02-27T10:38:49;0.30;;;0.30;;
12383;SDS011;6256;63.808;20.336;2023-02-27T10:41:19;0.20;;;0.20;;
12383;SDS011;6256;63.808;20.336;2023-02-27T10:43:46;0.20;;;0.20;;
12383;SDS011;6256;63.808;20.336;2023-02-27T10:46:16;0.30;;;0.30;;
12383;SDS011;6256;63.808;20.336;2023-02-27T10:48:45;0.30;;;0.30;;
12383;SDS011;6256;63.808;20.336;2023-02-27T10:53:51;0.37;;;0.37;;
12383;SDS011;6256;63.808;20.336;2023-02-27T10:56:49;0.40;;;0.40;;
12383;SDS011;6256;63.808;20.336;2023-02-27T10:59:22;0.30;;;0.30;;
12383;SDS011;6256;63.808;20.336;2023-02-27T11:01:53;0.27;;;0.27;;
12383;SDS011;6256;63.808;20.336;2023-02-27T11:04:36;0.40;;;0.40;;
12383;SDS011;6256;63.808;20.336;2023-02-27T11:07:04;0.87;;;0.50;;
12383;SDS011;6256;63.808;20.336;2023-02-27T11:09:33;0.30;;;0.30;;
12383;SDS011;6256;63.808;20.336;2023-02-27T11:12:10;0.40;;;0.40;;
12383;SDS011;6256;63.808;20.336;2023-02-27T11:14:57;0.60;;;0.50;;
12383;SDS011;6256;63.808;20.336;2023-02-27T11:17:31;0.83;;;0.50;;
12383;SDS011;6256;63.808;20.336;2023-02-27T11:20:00;0.40;;;0.40;;
12383;SDS011;6256;63.808;20.336;2023-02-27T11:22:30;0.30;;;0.30;;
12383;SDS011;6256;63.808;20.336;2023-02-27T11:25:17;0.33;;;0.30;;
12383;SDS011;6256;63.808;20.336;2023-02-27T11:27:45;0.47;;;0.37;;
12383;SDS011;6256;63.808;20.336;2023-02-27T11:30:23;0.40;;;0.40;;
12383;SDS011;6256;63.808;20.336;2023-02-27T11:32:51;0.67;;;0.40;;
12383;SDS011;6256;63.808;20.336;2023-02-27T11:35:25;0.20;;;0.20;;
12383;SDS011;6256;63.808;20.336;2023-02-27T11:37:56;0.30;;;0.30;;
12383;SDS011;6256;63.808;20.336;2023-02-27T11:40:47;0.37;;;0.30;;
12383;SDS011;6256;63.808;20.336;2023-02-27T11:43:25;0.30;;;0.30;;
12383;SDS011;6256;63.808;20.336;2023-02-27T11:45:58;0.40;;;0.40;;
12383;SDS011;6256;63.808;20.336;2023-02-27T11:51:04;0.30;;;0.30;;
12383;SDS011;6256;63.808;20.336;2023-02-27T11:56:25;0.40;;;0.40;;
12383;SDS011;6256;63.808;20.336;2023-02-27T12:01:48;0.20;;;0.20;;
12383;SDS011;6256;63.808;20.336;2023-02-27T12:07:43;0.30;;;0.30;;
12383;SDS011;6256;63.808;20.336;2023-02-27T12:10:08;0.27;;;0.27;;
12383;SDS011;6256;63.808;20.336;2023-02-27T12:12:44;0.27;;;0.27;;
12383;SDS011;6256;63.808;20.336;2023-02-27T12:17:46;0.30;;;0.30;;
12383;SDS011;6256;63.808;20.336;2023-02-27T12:20:21;2.77;;;0.30;;
12383;SDS011;6256;63.808;20.336;2023-02-27T12:22:53;0.20;;;0.20;;
12383;SDS011;6256;63.808;20.336;2023-02-27T12:30:35;0.30;;;0.30;;
12383;SDS011;6256;63.808;20.336;2023-02-27T12:36:09;0.20;;;0.20;;
12383;SDS011;6256;63.808;20.336;2023-02-27T12:38:37;0.27;;;0.27;;
12383;SDS011;6256;63.808;20.336;2023-02-27T12:49:13;0.30;;;0.30;;
12383;SDS011;6256;63.808;20.336;2023-02-27T12:54:56;0.30;;;0.30;;
12383;SDS011;6256;63.808;20.336;2023-02-27T13:03:14;0.20;;;0.20;;
12383;SDS011;6256;63.808;20.336;2023-02-27T13:13:46;0.20;;;0.20;;
12383;SDS011;6256;63.808;20.336;2023-02-27T13:16:21;0.10;;;0.10;;
12383;SDS011;6256;63.808;20.336;2023-02-27T13:19:03;0.27;;;0.27;;
12383;SDS011;6256;63.808;20.336;2023-02-27T13:24:14;1.07;;;0.40;;
12383;SDS011;6256;63.808;20.336;2023-02-27T13:26:54;0.77;;;0.30;;
12383;SDS011;6256;63.808;20.336;2023-02-27T13:29:40;0.20;;;0.20;;
12383;SDS011;6256;63.808;20.336;2023-02-27T13:37:58;0.30;;;0.30;;
12383;SDS011;6256;63.808;20.336;2023-02-27T13:40:34;0.30;;;0.30;;
12383;SDS011;6256;63.808;20.336;2023-02-27T13:43:11;0.30;;;0.30;;
12383;SDS011;6256;63.808;20.336;2023-02-27T13:46:20;0.20;;;0.20;;
12383;SDS011;6256;63.808;20.336;2023-02-27T13:51:43;0.30;;;0.30;;
12383;SDS011;6256;63.808;20.336;2023-02-27T13:56:42;0.20;;;0.20;;
12383;SDS011;6256;63.808;20.336;2023-02-27T13:59:25;1.80;;;0.30;;
12383;SDS011;6256;63.808;20.336;2023-02-27T14:04:31;0.20;;;0.20;;
12383;SDS011;6256;63.808;20.336;2023-02-27T14:07:05;0.43;;;0.33;;
12383;SDS011;6256;63.808;20.336;2023-02-27T14:09:35;0.30;;;0.30;;
12383;SDS011;6256;63.808;20.336;2023-02-27T14:12:05;0.63;;;0.30;;
12383;SDS011;6256;63.808;20.336;2023-02-27T14:14:50;0.43;;;0.30;;
12383;SDS011;6256;63.808;20.336;2023-02-27T14:22:42;0.20;;;0.20;;
12383;SDS011;6256;63.808;20.336;2023-02-27T14:25:45;1.17;;;0.87;;
12383;SDS011;6256;63.808;20.336;2023-02-27T14:31:05;0.20;;;0.20;;
12383;SDS011;6256;63.808;20.336;2023-02-27T14:33:39;0.67;;;0.50;;
12383;SDS011;6256;63.808;20.336;2023-02-27T14:36:18;0.30;;;0.30;;
12383;SDS011;6256;63.808;20.336;2023-02-27T14:38:46;0.33;;;0.20;;
12383;SDS011;6256;63.808;20.336;2023-02-27T14:43:53;0.77;;;0.40;;
12383;SDS011;6256;63.808;20.336;2023-02-27T14:46:31;0.30;;;0.30;;
12383;SDS011;6256;63.808;20.336;2023-02-27T14:49:02;0.30;;;0.30;;
12383;SDS011;6256;63.808;20.336;2023-02-27T14:51:42;0.40;;;0.30;;
12383;SDS011;6256;63.808;20.336;2023-02-27T14:54:12;0.40;;;0.40;;
12383;SDS011;6256;63.808;20.336;2023-02-27T14:56:40;0.40;;;0.40;;
12383;SDS011;6256;63.808;20.336;2023-02-27T15:01:49;0.27;;;0.27;;
12383;SDS011;6256;63.808;20.336;2023-02-27T15:04:17;0.20;;;0.20;;
12383;SDS011;6256;63.808;20.336;2023-02-27T15:06:49;1.27;;;0.30;;
12383;SDS011;6256;63.808;20.336;2023-02-27T15:09:24;0.33;;;0.30;;
12383;SDS011;6256;63.808;20.336;2023-02-27T15:11:58;1.17;;;0.30;;
12383;SDS011;6256;63.808;20.336;2023-02-27T15:14:27;0.53;;;0.30;;
12383;SDS011;6256;63.808;20.336;2023-02-27T15:16:57;0.20;;;0.20;;
12383;SDS011;6256;63.808;20.336;2023-02-27T15:19:27;1.10;;;0.40;;
12383;SDS011;6256;63.808;20.336;2023-02-27T15:21:55;0.40;;;0.40;;
12383;SDS011;6256;63.808;20.336;2023-02-27T15:24:31;0.20;;;0.20;;
12383;SDS011;6256;63.808;20.336;2023-02-27T15:27:05;0.47;;;0.33;;
12383;SDS011;6256;63.808;20.336;2023-02-27T15:29:36;0.30;;;0.30;;
12383;SDS011;6256;63.808;20.336;2023-02-27T15:32:13;0.20;;;0.20;;
12383;SDS011;6256;63.808;20.336;2023-02-27T15:34:42;0.20;;;0.20;;
12383;SDS011;6256;63.808;20.336;2023-02-27T15:37:15;0.30;;;0.30;;
12383;SDS011;6256;63.808;20.336;2023-02-27T15:39:46;0.30;;;0.30;;
12383;SDS011;6256;63.808;20.336;2023-02-27T15:42:12;0.30;;;0.30;;
12383;SDS011;6256;63.808;20.336;2023-02-27T15:44:42;0.70;;;0.30;;
12383;SDS011;6256;63.808;20.336;2023-02-27T15:47:14;0.80;;;0.20;;
12383;SDS011;6256;63.808;20.336;2023-02-27T15:49:57;0.30;;;0.30;;
12383;SDS011;6256;63.808;20.336;2023-02-27T15:52:38;0.50;;;0.50;;
12383;SDS011;6256;63.808;20.336;2023-02-27T15:55:11;0.20;;;0.20;;
12383;SDS011;6256;63.808;20.336;2023-02-27T15:57:38;0.30;;;0.30;;
12383;SDS011;6256;63.808;20.336;2023-02-27T16:00:05;0.30;;;0.30;;
12383;SDS011;6256;63.808;20.336;2023-02-27T16:02:45;0.63;;;0.30;;
12383;SDS011;6256;63.808;20.336;2023-02-27T16:08:05;0.30;;;0.30;;
12383;SDS011;6256;63.808;20.336;2023-02-27T16:10:35;0.20;;;0.20;;
12383;SDS011;6256;63.808;20.336;2023-02-27T16:18:45;0.40;;;0.40;;
12383;SDS011;6256;63.808;20.336;2023-02-27T16:21:22;0.30;;;0.30;;
12383;SDS011;6256;63.808;20.336;2023-02-27T16:23:49;0.30;;;0.30;;
12383;SDS011;6256;63.808;20.336;2023-02-27T16:31:36;0.30;;;0.30;;
12383;SDS011;6256;63.808;20.336;2023-02-27T16:36:52;0.40;;;0.40;;
12383;SDS011;6256;63.808;20.336;2023-02-27T16:39:20;0.20;;;0.20;;
12383;SDS011;6256;63.808;20.336;2023-02-27T16:41:46;0.53;;;0.30;;
12383;SDS011;6256;63.808;20.336;2023-02-27T16:44:12;0.20;;;0.20;;
12383;SDS011;6256;63.808;20.336;2023-02-27T16:46:37;0.20;;;0.20;;
12383;SDS011;6256;63.808;20.336;2023-02-27T16:49:03;0.30;;;0.30;;
12383;SDS011;6256;63.808;20.336;2023-02-27T16:51:30;0.30;;;0.30;;
12383;SDS011;6256;63.808;20.336;2023-02-27T16:53:58;0.20;;;0.20;;
12383;SDS011;6256;63.808;20.336;2023-02-27T16:56:25;0.30;;;0.30;;
12383;SDS011;6256;63.808;20.336;2023-02-27T16:58:52;0.27;;;0.27;;
12383;SDS011;6256;63.808;20.336;2023-02-27T17:01:18;0.30;;;0.30;;
12383;SDS011;6256;63.808;20.336;2023-02-27T17:03:44;0.30;;;0.30;;
12383;SDS011;6256;63.808;20.336;2023-02-27T17:06:12;0.20;;;0.20;;
12383;SDS011;6256;63.808;20.336;2023-02-27T17:08:39;1.50;;;0.40;;
12383;SDS011;6256;63.808;20.336;2023-02-27T17:11:06;0.30;;;0.30;;
12383;SDS011;6256;63.808;20.336;2023-02-27T17:13:33;0.40;;;0.40;;
12383;SDS011;6256;63.808;20.336;2023-02-27T17:16:03;0.20;;;0.20;;
12383;SDS011;6256;63.808;20.336;2023-02-27T17:18:30;0.20;;;0.20;;
12383;SDS011;6256;63.808;20.336;2023-02-27T17:21:00;0.43;;;0.43;;
12383;SDS011;6256;63.808;20.336;2023-02-27T17:23:30;0.30;;;0.30;;
12383;SDS011;6256;63.808;20.336;2023-02-27T17:25:56;0.23;;;0.23;;
12383;SDS011;6256;63.808;20.336;2023-02-27T17:28:22;0.23;;;0.23;;
12383;SDS011;6256;63.808;20.336;2023-02-27T17:30:48;0.37;;;0.20;;
12383;SDS011;6256;63.808;20.336;2023-02-27T17:33:14;0.30;;;0.30;;
12383;SDS011;6256;63.808;20.336;2023-02-27T17:35:40;0.30;;;0.30;;
12383;SDS011;6256;63.808;20.336;2023-02-27T17:38:06;0.20;;;0.20;;
12383;SDS011;6256;63.808;20.336;2023-02-27T17:40:31;0.40;;;0.40;;
12383;SDS011;6256;63.808;20.336;2023-02-27T17:43:00;0.30;;;0.30;;
12383;SDS011;6256;63.808;20.336;2023-02-27T17:45:25;0.20;;;0.20;;
12383;SDS011;6256;63.808;20.336;2023-02-27T17:47:51;0.30;;;0.30;;
12383;SDS011;6256;63.808;20.336;2023-02-27T17:50:17;0.30;;;0.30;;
12383;SDS011;6256;63.808;20.336;2023-02-27T17:52:43;0.20;;;0.20;;
12383;SDS011;6256;63.808;20.336;2023-02-27T17:55:10;0.20;;;0.20;;
12383;SDS011;6256;63.808;20.336;2023-02-27T17:57:37;0.30;;;0.30;;